createdAt,value
2022-09-17T00:01:50.574Z,16.25
2022-09-17T00:04:19.225Z,16.25
2022-09-17T00:06:47.339Z,16.26
2022-09-17T00:09:15.628Z,16.23
2022-09-17T00:11:45.804Z,16.22
2022-09-17T00:14:18.933Z,16.10
2022-09-17T00:16:48.177Z,16.03
2022-09-17T00:19:18.301Z,15.94
2022-09-17T00:21:46.293Z,15.86
2022-09-17T00:24:14.736Z,15.80
2022-09-17T00:26:44.196Z,15.77
2022-09-17T00:29:12.765Z,15.82
2022-09-17T00:31:40.749Z,15.84
2022-09-17T00:34:09.242Z,15.85
2022-09-17T00:36:37.651Z,15.83
2022-09-17T00:39:06.920Z,15.77
2022-09-17T00:41:38.317Z,15.69
2022-09-17T00:44:46.241Z,15.64
2022-09-17T00:47:17.520Z,15.59
2022-09-17T00:49:45.684Z,15.58
2022-09-17T00:52:15.702Z,15.52
2022-09-17T00:54:45.621Z,15.60
2022-09-17T00:57:13.604Z,15.60
2022-09-17T00:59:41.520Z,15.55
2022-09-17T01:02:11.968Z,15.48
2022-09-17T01:04:50.223Z,15.40
2022-09-17T01:08:49.290Z,15.33
2022-09-17T01:11:07.031Z,15.26
2022-09-17T01:13:52.744Z,15.25
2022-09-17T01:16:22.391Z,15.22
2022-09-17T01:19:12.340Z,15.20
2022-09-17T01:21:53.928Z,15.09
2022-09-17T01:24:58.653Z,15.12
2022-09-17T01:27:59.827Z,15.09
2022-09-17T01:30:58.579Z,15.04
2022-09-17T01:33:28.815Z,15.00
2022-09-17T01:36:31.528Z,14.99
2022-09-17T01:39:02.991Z,14.96
2022-09-17T01:41:36.171Z,14.98
2022-09-17T01:44:05.657Z,14.92
2022-09-17T01:46:35.745Z,14.87
2022-09-17T01:49:04.608Z,14.85
2022-09-17T01:51:37.532Z,14.74
2022-09-17T01:54:07.122Z,14.74
2022-09-17T01:56:38.722Z,14.61
2022-09-17T01:59:12.210Z,14.65
2022-09-17T02:01:46.222Z,14.63
2022-09-17T02:04:16.815Z,14.55
2022-09-17T02:06:47.502Z,14.53
2022-09-17T02:09:16.739Z,14.49
2022-09-17T02:11:45.597Z,14.49
2022-09-17T02:14:14.786Z,14.43
2022-09-17T02:16:46.748Z,14.38
2022-09-17T02:19:17.404Z,14.34
2022-09-17T02:21:47.206Z,14.33
2022-09-17T02:24:20.487Z,14.30
2022-09-17T02:27:04.412Z,14.27
2022-09-17T02:29:41.896Z,14.27
2022-09-17T02:32:47.065Z,14.21
2022-09-17T02:35:15.252Z,14.02
2022-09-17T02:37:43.414Z,14.04
2022-09-17T02:40:12.074Z,14.02
2022-09-17T02:42:52.108Z,14.00
2022-09-17T02:45:22.961Z,13.98
2022-09-17T02:48:13.434Z,13.93
2022-09-17T02:50:51.992Z,13.97
2022-09-17T02:53:29.838Z,13.93
2022-09-17T02:56:02.164Z,13.99
2022-09-17T02:58:32.687Z,13.96
2022-09-17T03:01:03.165Z,13.90
2022-09-17T03:03:33.418Z,13.91
2022-09-17T03:06:01.402Z,13.93
2022-09-17T03:08:30.112Z,13.90
2022-09-17T03:10:58.301Z,13.84
2022-09-17T03:13:35.644Z,13.77
2022-09-17T03:16:08.547Z,13.68
2022-09-17T03:18:42.885Z,13.64
2022-09-17T03:21:14.909Z,13.65
2022-09-17T03:24:50.816Z,13.67
2022-09-17T03:26:40.794Z,13.65
2022-09-17T03:29:10.431Z,13.62
2022-09-17T03:31:39.198Z,13.59
2022-09-17T03:34:10.474Z,13.56
2022-09-17T03:36:38.943Z,13.47
2022-09-17T03:39:08.068Z,13.43
2022-09-17T03:41:38.712Z,13.37
2022-09-17T03:44:16.908Z,13.36
2022-09-17T03:46:46.000Z,13.35
2022-09-17T03:49:16.174Z,13.36
2022-09-17T03:51:48.391Z,13.34
2022-09-17T03:54:22.915Z,13.34
2022-09-17T03:56:59.530Z,13.31
2022-09-17T03:59:27.966Z,13.29
2022-09-17T04:01:56.975Z,13.25
2022-09-17T04:04:31.889Z,13.23
2022-09-17T04:07:00.670Z,13.20
2022-09-17T04:09:33.425Z,13.20
2022-09-17T04:12:04.907Z,13.13
2022-09-17T04:14:33.899Z,13.16
2022-09-17T04:17:05.229Z,13.14
2022-09-17T04:19:34.780Z,13.12
2022-09-17T04:22:03.555Z,13.11
2022-09-17T04:24:32.638Z,13.12
2022-09-17T04:27:02.145Z,12.94
2022-09-17T04:29:30.501Z,13.16
2022-09-17T04:32:00.160Z,13.13
2022-09-17T04:34:32.657Z,13.12
2022-09-17T04:37:08.088Z,13.08
2022-09-17T04:39:38.933Z,13.06
2022-09-17T04:42:10.505Z,13.09
2022-09-17T04:44:39.855Z,13.08
2022-09-17T04:47:12.068Z,13.08
2022-09-17T04:49:41.089Z,13.08
2022-09-17T04:52:16.179Z,13.09
2022-09-17T04:54:50.459Z,13.00
2022-09-17T04:57:18.829Z,13.01
2022-09-17T04:59:53.969Z,12.96
2022-09-17T05:02:28.979Z,12.93
2022-09-17T05:05:26.052Z,12.84
2022-09-17T05:08:02.956Z,12.82
2022-09-17T05:10:35.016Z,12.79
2022-09-17T05:13:08.104Z,12.75
2022-09-17T05:15:37.281Z,12.78
2022-09-17T05:18:08.783Z,12.80
2022-09-17T05:20:37.003Z,12.79
2022-09-17T05:23:06.446Z,12.81
2022-09-17T05:25:35.812Z,12.81
2022-09-17T05:28:56.155Z,12.79
2022-09-17T05:31:24.724Z,12.78
2022-09-17T05:33:56.490Z,12.78
2022-09-17T05:36:49.830Z,12.73
2022-09-17T05:39:23.307Z,12.76
2022-09-17T05:44:53.152Z,12.70
2022-09-17T05:47:21.500Z,12.68
2022-09-17T05:49:58.114Z,12.67
2022-09-17T05:52:36.299Z,12.68
2022-09-17T05:55:18.580Z,12.71
2022-09-17T05:58:03.019Z,12.67
2022-09-17T06:00:32.153Z,12.64
2022-09-17T06:03:01.194Z,12.66
2022-09-17T06:05:36.772Z,12.66
2022-09-17T06:08:13.240Z,12.65
2022-09-17T06:10:43.484Z,12.65
2022-09-17T06:13:14.172Z,12.57
2022-09-17T06:15:54.311Z,12.66
2022-09-17T06:18:43.370Z,12.67
2022-09-17T06:21:11.834Z,12.70
2022-09-17T06:23:40.470Z,12.75
2022-09-17T06:26:13.997Z,12.78
2022-09-17T06:32:17.122Z,12.92
2022-09-17T06:34:56.222Z,12.98
2022-09-17T06:37:28.965Z,13.03
2022-09-17T06:39:57.112Z,13.07
2022-09-17T06:42:36.580Z,13.13
2022-09-17T06:45:11.071Z,13.10
2022-09-17T06:47:41.306Z,13.31
2022-09-17T06:50:13.867Z,13.45
2022-09-17T06:52:58.186Z,13.57
2022-09-17T06:55:28.816Z,13.66
2022-09-17T06:58:01.474Z,13.77
2022-09-17T07:00:30.430Z,13.80
2022-09-17T07:03:01.565Z,13.84
2022-09-17T07:05:44.428Z,13.88
2022-09-17T07:08:12.649Z,13.95
2022-09-17T07:10:44.307Z,13.97
2022-09-17T07:13:13.673Z,14.03
2022-09-17T07:16:09.952Z,14.12
2022-09-17T07:18:43.659Z,14.19
2022-09-17T07:21:11.577Z,14.25
2022-09-17T07:23:42.139Z,14.31
2022-09-17T07:26:13.314Z,14.39
2022-09-17T07:28:43.779Z,14.48
2022-09-17T07:31:16.103Z,14.49
2022-09-17T07:33:56.886Z,14.59
2022-09-17T07:36:53.293Z,14.57
2022-09-17T07:39:26.133Z,14.67
2022-09-17T07:42:01.607Z,14.72
2022-09-17T07:44:31.533Z,14.80
2022-09-17T07:46:59.534Z,14.74
2022-09-17T07:49:27.566Z,14.83
2022-09-17T07:51:55.954Z,15.08
2022-09-17T07:54:24.100Z,15.21
2022-09-17T07:56:52.118Z,15.29
2022-09-17T07:59:23.094Z,15.37
2022-09-17T08:01:52.605Z,15.42
2022-09-17T08:04:21.046Z,15.51
2022-09-17T08:06:49.411Z,15.60
2022-09-17T08:09:20.571Z,15.69
2022-09-17T08:11:56.827Z,15.73
2022-09-17T08:14:29.459Z,15.88
2022-09-17T08:16:59.401Z,15.95
2022-09-17T08:19:29.828Z,16.03
2022-09-17T08:22:00.777Z,16.10
2022-09-17T08:24:28.825Z,16.17
2022-09-17T08:26:56.725Z,16.23
2022-09-17T08:29:24.772Z,16.28
2022-09-17T08:31:52.812Z,16.34
2022-09-17T08:34:22.213Z,16.46
2022-09-17T08:36:50.147Z,16.57
2022-09-17T08:39:18.260Z,16.77
2022-09-17T08:41:58.720Z,16.93
2022-09-17T08:44:27.708Z,17.07
2022-09-17T08:47:00.232Z,17.14
2022-09-17T08:49:34.542Z,17.19
2022-09-17T08:52:27.705Z,17.24
2022-09-17T08:54:58.133Z,17.33
2022-09-17T08:57:28.841Z,17.47
2022-09-17T08:59:58.927Z,17.60
2022-09-17T09:02:35.166Z,17.70
2022-09-17T09:05:06.885Z,17.84
2022-09-17T09:07:39.057Z,17.98
2022-09-17T09:10:13.032Z,18.13
2022-09-17T09:12:40.974Z,18.22
2022-09-17T09:15:16.768Z,18.29
2022-09-17T09:17:46.856Z,18.36
2022-09-17T09:20:20.228Z,18.35
2022-09-17T09:22:49.180Z,18.33
2022-09-17T09:25:23.041Z,18.33
2022-09-17T09:28:12.368Z,18.50
2022-09-17T09:30:47.816Z,18.64
2022-09-17T09:33:17.881Z,18.86
2022-09-17T09:35:47.362Z,19.11
2022-09-17T09:38:19.809Z,19.27
2022-09-17T09:40:50.041Z,19.46
2022-09-17T09:43:19.024Z,19.69
2022-09-17T09:45:54.082Z,19.98
2022-09-17T09:48:24.827Z,20.23
2022-09-17T09:51:06.515Z,20.38
2022-09-17T09:53:40.905Z,20.36
2022-09-17T09:56:19.340Z,20.21
2022-09-17T09:58:47.628Z,20.16
2022-09-17T10:01:16.779Z,20.02
2022-09-17T10:03:46.189Z,19.99
2022-09-17T10:06:15.887Z,19.99
2022-09-17T10:09:04.299Z,20.00
2022-09-17T10:11:33.221Z,20.05
2022-09-17T10:14:15.434Z,20.15
2022-09-17T10:16:43.348Z,20.17
2022-09-17T10:19:15.429Z,20.19
2022-09-17T10:21:44.765Z,20.22
2022-09-17T10:24:17.197Z,20.28
2022-09-17T10:26:45.104Z,20.33
2022-09-17T10:29:14.269Z,20.35
2022-09-17T10:31:48.871Z,20.43
2022-09-17T10:34:21.193Z,20.64
2022-09-17T10:36:50.923Z,20.80
2022-09-17T10:39:30.756Z,21.09
2022-09-17T10:41:59.050Z,21.39
2022-09-17T10:44:28.336Z,21.76
2022-09-17T10:46:56.897Z,22.15
2022-09-17T10:49:40.944Z,22.38
2022-09-17T10:52:13.127Z,22.60
2022-09-17T10:55:16.597Z,22.90
2022-09-17T10:58:05.239Z,22.92
2022-09-17T11:00:40.014Z,22.74
2022-09-17T11:03:43.384Z,22.59
2022-09-17T11:06:38.545Z,22.54
2022-09-17T11:09:12.232Z,22.50
2022-09-17T11:11:46.953Z,22.32
2022-09-17T11:14:21.183Z,22.56
2022-09-17T11:16:52.404Z,23.22
2022-09-17T11:19:25.926Z,23.47
2022-09-17T11:21:55.323Z,23.80
2022-09-17T11:24:55.997Z,24.23
2022-09-17T11:27:35.625Z,24.33
2022-09-17T11:30:06.353Z,24.30
2022-09-17T11:32:50.677Z,23.94
2022-09-17T11:35:20.213Z,24.22
2022-09-17T11:37:51.009Z,24.65
2022-09-17T11:40:20.947Z,25.09
2022-09-17T11:42:52.172Z,25.23
2022-09-17T11:45:21.668Z,24.94
2022-09-17T11:47:51.960Z,24.72
2022-09-17T11:50:22.250Z,24.57
2022-09-17T11:52:58.253Z,24.84
2022-09-17T11:55:28.544Z,25.20
2022-09-17T11:58:00.996Z,25.47
2022-09-17T12:00:29.462Z,25.30
2022-09-17T12:02:59.736Z,25.13
2022-09-17T12:05:29.605Z,25.36
2022-09-17T12:08:00.200Z,25.83
2022-09-17T12:10:38.718Z,25.76
2022-09-17T12:13:15.408Z,25.55
2022-09-17T12:15:47.673Z,25.44
2022-09-17T12:18:37.150Z,25.57
2022-09-17T12:21:06.456Z,25.62
2022-09-17T12:23:38.779Z,25.46
2022-09-17T12:26:13.714Z,25.34
2022-09-17T12:28:46.424Z,25.08
2022-09-17T12:31:17.618Z,24.55
2022-09-17T12:33:47.213Z,24.42
2022-09-17T12:36:22.339Z,24.45
2022-09-17T12:39:11.198Z,24.82
2022-09-17T12:41:48.246Z,24.80
2022-09-17T12:44:25.048Z,24.61
2022-09-17T12:47:00.987Z,24.91
2022-09-17T12:49:38.795Z,25.61
2022-09-17T12:52:08.314Z,25.89
2022-09-17T12:54:55.620Z,25.78
2022-09-17T12:57:30.077Z,25.61
2022-09-17T13:00:06.833Z,25.43
2022-09-17T13:02:38.093Z,25.14
2022-09-17T13:05:23.227Z,25.18
2022-09-17T13:08:25.714Z,25.84
2022-09-17T13:11:18.080Z,26.62
2022-09-17T13:13:49.671Z,26.88
2022-09-17T13:16:20.763Z,26.80
2022-09-17T13:19:15.037Z,27.15
2022-09-17T13:21:44.162Z,27.51
2022-09-17T13:24:16.339Z,27.14
2022-09-17T13:26:45.657Z,26.95
2022-09-17T13:29:14.604Z,26.73
2022-09-17T13:31:51.029Z,26.92
2022-09-17T13:34:29.752Z,27.00
2022-09-17T13:36:57.989Z,27.16
2022-09-17T13:39:40.669Z,27.00
2022-09-17T13:42:11.634Z,27.07
2022-09-17T13:44:41.175Z,27.49
2022-09-17T13:47:18.949Z,28.03
2022-09-17T13:49:51.782Z,28.69
2022-09-17T13:52:39.597Z,29.28
2022-09-17T13:55:08.459Z,29.53
2022-09-17T13:57:47.205Z,29.63
2022-09-17T14:00:45.276Z,29.60
2022-09-17T14:03:44.551Z,29.76
2022-09-17T14:06:48.466Z,29.96
2022-09-17T14:09:39.159Z,30.12
2022-09-17T14:12:39.826Z,30.19
2022-09-17T14:15:33.699Z,30.27
2022-09-17T14:18:02.689Z,30.24
2022-09-17T14:20:30.732Z,29.90
2022-09-17T14:23:00.628Z,29.88
2022-09-17T14:25:31.974Z,29.90
2022-09-17T14:28:00.119Z,30.06
2022-09-17T14:30:28.257Z,30.25
2022-09-17T14:33:03.037Z,30.43
2022-09-17T14:35:32.496Z,30.66
2022-09-17T14:38:03.903Z,31.09
2022-09-17T14:40:32.260Z,31.61
2022-09-17T14:43:00.194Z,31.75
2022-09-17T14:45:32.572Z,31.57
2022-09-17T14:48:28.815Z,31.72
2022-09-17T14:51:27.341Z,31.58
2022-09-17T14:54:27.320Z,31.82
2022-09-17T14:56:57.125Z,31.68
2022-09-17T14:59:44.454Z,31.48
2022-09-17T15:02:33.414Z,30.95
2022-09-17T15:05:03.267Z,30.39
2022-09-17T15:07:31.612Z,29.83
2022-09-17T15:10:15.019Z,29.09
2022-09-17T15:12:44.108Z,28.36
2022-09-17T15:15:22.034Z,27.70
2022-09-17T15:17:50.237Z,27.14
2022-09-17T15:20:19.959Z,26.71
2022-09-17T15:22:51.230Z,26.37
2022-09-17T15:25:23.877Z,26.28
2022-09-17T15:27:51.857Z,26.25
2022-09-17T15:30:20.565Z,26.36
2022-09-17T15:32:51.442Z,26.48
2022-09-17T15:35:22.173Z,26.48
2022-09-17T15:38:11.953Z,26.64
2022-09-17T15:40:41.013Z,26.77
2022-09-17T15:43:16.552Z,26.87
2022-09-17T15:45:44.481Z,26.99
2022-09-17T15:48:39.658Z,27.02
2022-09-17T15:51:13.913Z,26.73
2022-09-17T15:53:51.414Z,26.41
2022-09-17T15:56:20.863Z,26.21
2022-09-17T15:58:56.591Z,26.01
2022-09-17T16:01:54.254Z,26.00
2022-09-17T16:04:24.099Z,25.92
2022-09-17T16:06:56.925Z,25.93
2022-09-17T16:09:42.042Z,26.08
2022-09-17T16:12:13.333Z,26.25
2022-09-17T16:14:45.115Z,26.46
2022-09-17T16:17:29.343Z,26.61
2022-09-17T16:19:58.816Z,26.60
2022-09-17T16:22:29.570Z,26.51
2022-09-17T16:24:57.662Z,26.39
2022-09-17T16:27:30.159Z,26.18
2022-09-17T16:30:01.767Z,25.84
2022-09-17T16:32:29.785Z,25.39
2022-09-17T16:34:57.845Z,25.00
2022-09-17T16:37:26.004Z,24.63
2022-09-17T16:39:54.038Z,24.33
2022-09-17T16:42:21.973Z,24.10
2022-09-17T16:44:51.264Z,23.86
2022-09-17T16:47:19.240Z,23.63
2022-09-17T16:49:47.167Z,23.49
2022-09-17T16:52:15.182Z,23.40
2022-09-17T16:54:43.156Z,23.26
2022-09-17T16:57:11.083Z,23.08
2022-09-17T16:59:39.094Z,22.93
2022-09-17T17:02:08.380Z,22.73
2022-09-17T17:04:36.318Z,22.59
2022-09-17T17:07:04.392Z,22.43
2022-09-17T17:09:32.299Z,22.34
2022-09-17T17:12:00.260Z,22.17
2022-09-17T17:14:28.222Z,22.04
2022-09-17T17:16:56.226Z,21.61
2022-09-17T17:19:27.041Z,21.75
2022-09-17T17:21:54.970Z,21.61
2022-09-17T17:24:22.958Z,21.46
2022-09-17T17:26:50.896Z,21.32
2022-09-17T17:29:19.156Z,21.21
2022-09-17T17:31:49.112Z,21.11
2022-09-17T17:34:17.073Z,20.98
2022-09-17T17:36:46.501Z,20.84
2022-09-17T17:39:14.457Z,20.83
2022-09-17T17:41:42.392Z,20.74
2022-09-17T17:44:12.574Z,20.67
2022-09-17T17:46:40.606Z,20.60
2022-09-17T17:49:08.752Z,20.55
2022-09-17T17:51:36.642Z,20.47
2022-09-17T17:54:06.174Z,20.40
2022-09-17T17:56:34.106Z,20.34
2022-09-17T17:59:02.238Z,20.27
2022-09-17T18:01:30.626Z,20.16
2022-09-17T18:03:58.993Z,20.16
2022-09-17T18:06:26.978Z,20.11
2022-09-17T18:08:54.964Z,20.05
2022-09-17T18:11:24.377Z,20.02
2022-09-17T18:13:52.751Z,19.96
2022-09-17T18:16:20.783Z,19.88
2022-09-17T18:18:48.901Z,19.81
2022-09-17T18:21:17.659Z,19.69
2022-09-17T18:23:45.700Z,19.64
2022-09-17T18:26:14.686Z,19.59
2022-09-17T18:28:44.044Z,19.55
2022-09-17T18:31:22.931Z,19.44
2022-09-17T18:33:51.651Z,19.44
2022-09-17T18:36:19.671Z,19.37
2022-09-17T18:38:47.744Z,19.34
2022-09-17T18:41:15.654Z,19.28
2022-09-17T18:43:44.980Z,19.23
2022-09-17T18:46:13.048Z,19.17
2022-09-17T18:48:41.293Z,19.11
2022-09-17T18:51:14.699Z,19.05
2022-09-17T18:53:42.690Z,19.00
2022-09-17T18:56:13.331Z,18.94
2022-09-17T18:58:42.119Z,18.89
2022-09-17T19:01:11.601Z,18.82
2022-09-17T19:03:39.663Z,18.78
2022-09-17T19:06:08.704Z,18.74
2022-09-17T19:08:36.839Z,18.71
2022-09-17T19:11:04.969Z,18.62
2022-09-17T19:13:34.395Z,18.64
2022-09-17T19:16:02.767Z,18.58
2022-09-17T19:18:33.108Z,18.54
2022-09-17T19:21:01.813Z,18.45
2022-09-17T19:23:30.968Z,18.45
2022-09-17T19:25:58.964Z,18.30
2022-09-17T19:28:27.218Z,18.29
2022-09-17T19:30:55.201Z,18.31
2022-09-17T19:33:23.202Z,18.27
2022-09-17T19:35:52.708Z,18.27
2022-09-17T19:38:20.656Z,18.21
2022-09-17T19:40:56.967Z,18.15
2022-09-17T19:43:24.977Z,18.09
2022-09-17T19:45:52.904Z,18.07
2022-09-17T19:48:25.190Z,18.06
2022-09-17T19:50:54.877Z,18.03
2022-09-17T19:53:22.867Z,18.03
2022-09-17T19:55:50.887Z,18.01
2022-09-17T19:58:18.838Z,18.00
2022-09-17T20:00:46.778Z,17.78
2022-09-17T20:03:14.936Z,17.96
2022-09-17T20:05:43.090Z,17.93
2022-09-17T20:08:12.478Z,17.90
2022-09-17T20:10:40.387Z,17.88
2022-09-17T20:13:08.715Z,17.86
2022-09-17T20:15:36.769Z,17.84
2022-09-17T20:18:04.935Z,17.82
2022-09-17T20:20:33.062Z,17.80
2022-09-17T20:23:00.956Z,17.76
2022-09-17T20:25:30.248Z,17.75
2022-09-17T20:27:58.151Z,17.72
2022-09-17T20:30:26.199Z,17.70
2022-09-17T20:32:55.976Z,17.68
2022-09-17T20:35:23.916Z,17.66
2022-09-17T20:40:41.248Z,17.61
2022-09-17T20:43:09.209Z,17.59
2022-09-17T20:45:37.153Z,17.55
2022-09-17T20:48:05.107Z,17.54
2022-09-17T20:50:32.988Z,17.50
2022-09-17T20:53:00.934Z,17.47
2022-09-17T20:55:29.062Z,17.42
2022-09-17T20:57:58.323Z,17.44
2022-09-17T21:00:30.514Z,17.42
2022-09-17T21:02:59.047Z,17.40
2022-09-17T21:05:26.907Z,17.39
2022-09-17T21:07:54.905Z,17.36
2022-09-17T21:10:22.920Z,17.27
2022-09-17T21:12:50.839Z,17.32
2022-09-17T21:15:20.212Z,17.29
2022-09-17T21:17:48.264Z,17.29
2022-09-17T21:20:16.325Z,17.26
2022-09-17T21:22:44.370Z,17.21
2022-09-17T21:25:12.312Z,17.16
2022-09-17T21:27:40.232Z,17.14
2022-09-17T21:30:09.962Z,16.88
2022-09-17T21:32:39.246Z,17.02
2022-09-17T21:35:07.524Z,16.99
2022-09-17T21:37:35.544Z,16.98
2022-09-17T21:40:03.924Z,16.97
2022-09-17T21:42:32.962Z,16.96
2022-09-17T21:45:00.861Z,16.98
2022-09-17T21:47:28.789Z,16.95
2022-09-17T21:49:58.112Z,16.90
2022-09-17T21:52:26.095Z,16.87
2022-09-17T21:54:53.994Z,16.84
2022-09-17T21:57:21.897Z,16.82
2022-09-17T21:59:49.806Z,16.79
2022-09-17T22:02:18.095Z,16.75
2022-09-17T22:04:46.002Z,16.69
2022-09-17T22:07:16.342Z,16.64
2022-09-17T22:09:44.346Z,16.62
2022-09-17T22:12:12.405Z,16.60
2022-09-17T22:14:40.290Z,16.58
2022-09-17T22:17:08.200Z,16.56
2022-09-17T22:19:36.099Z,16.52
2022-09-17T22:22:04.047Z,16.46
2022-09-17T22:24:33.436Z,16.43
2022-09-17T22:27:01.448Z,16.39
2022-09-17T22:29:31.634Z,16.36
2022-09-17T22:31:59.749Z,16.35
2022-09-17T22:34:27.665Z,16.34
2022-09-17T22:36:55.563Z,16.30
2022-09-17T22:39:23.480Z,16.29
2022-09-17T22:41:52.734Z,16.26
2022-09-17T22:44:20.897Z,16.18
2022-09-17T22:46:49.860Z,16.03
2022-09-17T22:49:17.854Z,16.20
2022-09-17T22:51:46.675Z,16.04
2022-09-17T22:54:15.828Z,16.09
2022-09-17T22:56:43.749Z,16.09
2022-09-17T22:59:13.051Z,16.00
2022-09-17T23:01:41.151Z,15.96
2022-09-17T23:04:09.302Z,15.86
2022-09-17T23:06:38.342Z,15.80
2022-09-17T23:09:06.508Z,15.74
2022-09-17T23:11:35.431Z,15.70
2022-09-17T23:14:05.133Z,15.60
2022-09-17T23:16:36.397Z,15.54
2022-09-17T23:19:04.402Z,15.51
2022-09-17T23:21:32.332Z,15.45
2022-09-17T23:24:00.256Z,15.42
2022-09-17T23:26:28.549Z,15.38
2022-09-17T23:28:59.995Z,15.37
2022-09-17T23:31:30.601Z,15.29
2022-09-17T23:34:00.526Z,15.26
2022-09-17T23:36:29.053Z,15.26
2022-09-17T23:38:57.311Z,15.28
2022-09-17T23:41:25.905Z,15.26
2022-09-17T23:43:54.487Z,15.26
2022-09-17T23:46:23.007Z,15.24
2022-09-17T23:48:51.292Z,15.26
2022-09-17T23:51:20.656Z,15.27
2022-09-17T23:53:49.119Z,14.96
2022-09-17T23:56:18.825Z,15.12
2022-09-17T23:58:46.869Z,15.04
